sensor_id;sensor_type;location;lat;lon;timestamp;temperature;humidity
19544;DHT22;9917;51.256;7.152;2022-09-12T00:00:04;14.10;99.90
19544;DHT22;9917;51.256;7.152;2022-09-12T00:02:30;14.80;99.90
19544;DHT22;9917;51.256;7.152;2022-09-12T00:09:49;13.90;99.90
19544;DHT22;9917;51.256;7.152;2022-09-12T00:12:15;13.50;99.90
19544;DHT22;9917;51.256;7.152;2022-09-12T00:17:07;13.30;99.90
19544;DHT22;9917;51.256;7.152;2022-09-12T00:19:32;13.60;99.90
19544;DHT22;9917;51.256;7.152;2022-09-12T00:26:51;13.50;99.90
19544;DHT22;9917;51.256;7.152;2022-09-12T00:29:18;13.80;99.90
19544;DHT22;9917;51.256;7.152;2022-09-12T00:31:45;14.00;99.90
19544;DHT22;9917;51.256;7.152;2022-09-12T00:34:10;14.00;99.90
19544;DHT22;9917;51.256;7.152;2022-09-12T00:36:37;13.60;99.90
19544;DHT22;9917;51.256;7.152;2022-09-12T00:39:04;13.80;99.90
19544;DHT22;9917;51.256;7.152;2022-09-12T00:41:32;13.60;99.90
19544;DHT22;9917;51.256;7.152;2022-09-12T00:44:01;13.60;99.90
19544;DHT22;9917;51.256;7.152;2022-09-12T00:46:35;13.20;99.90
19544;DHT22;9917;51.256;7.152;2022-09-12T00:49:06;13.50;99.90
19544;DHT22;9917;51.256;7.152;2022-09-12T00:51:36;13.00;99.90
19544;DHT22;9917;51.256;7.152;2022-09-12T00:54:05;13.40;99.90
19544;DHT22;9917;51.256;7.152;2022-09-12T00:56:33;13.30;99.90
19544;DHT22;9917;51.256;7.152;2022-09-12T00:59:04;14.80;99.90
19544;DHT22;9917;51.256;7.152;2022-09-12T01:01:30;13.00;99.90
19544;DHT22;9917;51.256;7.152;2022-09-12T01:06:26;15.40;99.90
19544;DHT22;9917;51.256;7.152;2022-09-12T01:08:53;13.40;99.90
19544;DHT22;9917;51.256;7.152;2022-09-12T01:11:20;13.90;99.90
19544;DHT22;9917;51.256;7.152;2022-09-12T01:13:47;12.40;99.90
19544;DHT22;9917;51.256;7.152;2022-09-12T01:16:15;13.80;99.90
19544;DHT22;9917;51.256;7.152;2022-09-12T01:18:50;13.50;99.90
19544;DHT22;9917;51.256;7.152;2022-09-12T01:21:24;13.50;99.90
19544;DHT22;9917;51.256;7.152;2022-09-12T01:24:32;13.40;99.90
19544;DHT22;9917;51.256;7.152;2022-09-12T01:27:30;13.20;99.90
19544;DHT22;9917;51.256;7.152;2022-09-12T01:30:19;13.30;99.90
19544;DHT22;9917;51.256;7.152;2022-09-12T01:33:03;13.20;99.90
19544;DHT22;9917;51.256;7.152;2022-09-12T01:35:35;13.10;99.90
19544;DHT22;9917;51.256;7.152;2022-09-12T01:38:09;13.20;99.90
19544;DHT22;9917;51.256;7.152;2022-09-12T01:40:41;13.00;99.90
19544;DHT22;9917;51.256;7.152;2022-09-12T01:43:16;13.20;99.90
19544;DHT22;9917;51.256;7.152;2022-09-12T01:45:46;12.40;99.90
19544;DHT22;9917;51.256;7.152;2022-09-12T01:48:18;13.40;99.90
19544;DHT22;9917;51.256;7.152;2022-09-12T01:50:50;13.10;99.90
19544;DHT22;9917;51.256;7.152;2022-09-12T01:53:20;13.00;99.90
19544;DHT22;9917;51.256;7.152;2022-09-12T01:55:52;13.00;99.90
19544;DHT22;9917;51.256;7.152;2022-09-12T01:58:22;12.10;99.90
19544;DHT22;9917;51.256;7.152;2022-09-12T02:00:55;13.10;99.90
19544;DHT22;9917;51.256;7.152;2022-09-12T02:03:26;14.10;99.90
19544;DHT22;9917;51.256;7.152;2022-09-12T02:05:56;13.00;99.90
19544;DHT22;9917;51.256;7.152;2022-09-12T02:08:27;12.30;99.90
19544;DHT22;9917;51.256;7.152;2022-09-12T02:10:55;13.20;99.90
19544;DHT22;9917;51.256;7.152;2022-09-12T02:13:24;12.10;99.90
19544;DHT22;9917;51.256;7.152;2022-09-12T02:15:54;13.00;99.90
19544;DHT22;9917;51.256;7.152;2022-09-12T02:18:25;13.30;99.90
19544;DHT22;9917;51.256;7.152;2022-09-12T02:20:53;13.00;99.90
19544;DHT22;9917;51.256;7.152;2022-09-12T02:23:22;13.00;99.90
19544;DHT22;9917;51.256;7.152;2022-09-12T02:25:52;13.40;99.90
19544;DHT22;9917;51.256;7.152;2022-09-12T02:28:23;13.00;99.90
19544;DHT22;9917;51.256;7.152;2022-09-12T02:30:58;12.30;99.90
19544;DHT22;9917;51.256;7.152;2022-09-12T02:33:26;12.90;99.90
19544;DHT22;9917;51.256;7.152;2022-09-12T02:35:58;12.80;99.90
19544;DHT22;9917;51.256;7.152;2022-09-12T02:38:34;13.00;99.90
19544;DHT22;9917;51.256;7.152;2022-09-12T02:41:01;12.80;99.90
19544;DHT22;9917;51.256;7.152;2022-09-12T02:45:52;15.60;99.90
19544;DHT22;9917;51.256;7.152;2022-09-12T02:48:22;12.80;99.90
19544;DHT22;9917;51.256;7.152;2022-09-12T02:53:17;12.90;99.90
19544;DHT22;9917;51.256;7.152;2022-09-12T02:55:43;12.80;99.90
19544;DHT22;9917;51.256;7.152;2022-09-12T02:58:12;12.70;99.90
19544;DHT22;9917;51.256;7.152;2022-09-12T03:00:45;12.60;99.90
19544;DHT22;9917;51.256;7.152;2022-09-12T03:03:34;12.70;99.90
19544;DHT22;9917;51.256;7.152;2022-09-12T03:06:06;12.70;99.90
19544;DHT22;9917;51.256;7.152;2022-09-12T03:08:49;12.80;99.90
19544;DHT22;9917;51.256;7.152;2022-09-12T03:11:26;12.40;99.90
19544;DHT22;9917;51.256;7.152;2022-09-12T03:14:03;12.70;99.90
19544;DHT22;9917;51.256;7.152;2022-09-12T03:16:37;12.80;99.90
19544;DHT22;9917;51.256;7.152;2022-09-12T03:19:14;12.80;99.90
19544;DHT22;9917;51.256;7.152;2022-09-12T03:21:52;12.60;99.90
19544;DHT22;9917;51.256;7.152;2022-09-12T03:24:22;12.70;99.90
19544;DHT22;9917;51.256;7.152;2022-09-12T03:26:53;12.10;99.90
19544;DHT22;9917;51.256;7.152;2022-09-12T03:29:19;12.90;99.90
19544;DHT22;9917;51.256;7.152;2022-09-12T03:31:49;12.60;99.90
19544;DHT22;9917;51.256;7.152;2022-09-12T03:34:16;12.50;99.90
19544;DHT22;9917;51.256;7.152;2022-09-12T03:48:52;12.90;99.90
19544;DHT22;9917;51.256;7.152;2022-09-12T03:51:19;12.50;99.90
19544;DHT22;9917;51.256;7.152;2022-09-12T03:53:44;13.40;99.90
19544;DHT22;9917;51.256;7.152;2022-09-12T03:56:11;12.80;99.90
19544;DHT22;9917;51.256;7.152;2022-09-12T03:58:37;12.60;99.90
19544;DHT22;9917;51.256;7.152;2022-09-12T04:01:06;12.40;99.90
19544;DHT22;9917;51.256;7.152;2022-09-12T04:03:32;12.50;99.90
19544;DHT22;9917;51.256;7.152;2022-09-12T04:08:25;12.60;99.90
19544;DHT22;9917;51.256;7.152;2022-09-12T04:10:51;12.40;99.90
19544;DHT22;9917;51.256;7.152;2022-09-12T04:13:17;12.60;99.90
19544;DHT22;9917;51.256;7.152;2022-09-12T04:20:35;12.40;99.90
19544;DHT22;9917;51.256;7.152;2022-09-12T04:23:01;12.50;99.90
19544;DHT22;9917;51.256;7.152;2022-09-12T04:25:28;12.40;99.90
19544;DHT22;9917;51.256;7.152;2022-09-12T04:27:53;12.40;99.90
19544;DHT22;9917;51.256;7.152;2022-09-12T04:32:45;12.60;99.90
19544;DHT22;9917;51.256;7.152;2022-09-12T04:42:30;12.50;99.90
19544;DHT22;9917;51.256;7.152;2022-09-12T04:49:48;12.40;99.90
19544;DHT22;9917;51.256;7.152;2022-09-12T04:52:14;12.50;99.90
19544;DHT22;9917;51.256;7.152;2022-09-12T04:54:39;12.60;99.90
19544;DHT22;9917;51.256;7.152;2022-09-12T04:59:33;12.50;99.90
19544;DHT22;9917;51.256;7.152;2022-09-12T05:04:24;12.80;99.90
19544;DHT22;9917;51.256;7.152;2022-09-12T05:06:50;12.60;99.90
19544;DHT22;9917;51.256;7.152;2022-09-12T05:11:43;12.60;99.90
19544;DHT22;9917;51.256;7.152;2022-09-12T05:14:09;12.40;99.90
19544;DHT22;9917;51.256;7.152;2022-09-12T05:16:36;12.90;99.90
19544;DHT22;9917;51.256;7.152;2022-09-12T05:19:02;12.70;99.90
19544;DHT22;9917;51.256;7.152;2022-09-12T05:23:55;12.70;99.90
19544;DHT22;9917;51.256;7.152;2022-09-12T05:26:22;12.70;99.90
19544;DHT22;9917;51.256;7.152;2022-09-12T05:28:49;12.80;99.90
19544;DHT22;9917;51.256;7.152;2022-09-12T05:31:16;12.60;99.90
19544;DHT22;9917;51.256;7.152;2022-09-12T05:33:45;12.20;99.90
19544;DHT22;9917;51.256;7.152;2022-09-12T05:36:13;12.90;99.90
19544;DHT22;9917;51.256;7.152;2022-09-12T05:38:39;13.00;99.90
19544;DHT22;9917;51.256;7.152;2022-09-12T05:41:06;13.20;99.90
19544;DHT22;9917;51.256;7.152;2022-09-12T05:43:32;13.30;99.90
19544;DHT22;9917;51.256;7.152;2022-09-12T05:46:01;13.20;99.90
19544;DHT22;9917;51.256;7.152;2022-09-12T05:48:27;13.70;99.90
19544;DHT22;9917;51.256;7.152;2022-09-12T05:50:59;13.40;99.90
19544;DHT22;9917;51.256;7.152;2022-09-12T05:53:26;13.20;99.90
19544;DHT22;9917;51.256;7.152;2022-09-12T05:56:01;13.30;99.90
19544;DHT22;9917;51.256;7.152;2022-09-12T05:58:27;13.60;99.90
19544;DHT22;9917;51.256;7.152;2022-09-12T06:03:19;14.90;99.90
19544;DHT22;9917;51.256;7.152;2022-09-12T06:08:12;14.10;99.90
19544;DHT22;9917;51.256;7.152;2022-09-12T06:13:04;14.60;99.90
19544;DHT22;9917;51.256;7.152;2022-09-12T06:20:22;13.30;99.90
19544;DHT22;9917;51.256;7.152;2022-09-12T06:25:15;14.90;99.90
19544;DHT22;9917;51.256;7.152;2022-09-12T06:30:07;15.20;99.90
19544;DHT22;9917;51.256;7.152;2022-09-12T06:37:26;15.60;99.90
19544;DHT22;9917;51.256;7.152;2022-09-12T06:42:19;15.80;99.90
19544;DHT22;9917;51.256;7.152;2022-09-12T06:44:45;16.20;99.90
19544;DHT22;9917;51.256;7.152;2022-09-12T06:47:10;16.30;99.90
19544;DHT22;9917;51.256;7.152;2022-09-12T06:49:36;16.10;99.90
19544;DHT22;9917;51.256;7.152;2022-09-12T06:59:21;16.90;99.90
19544;DHT22;9917;51.256;7.152;2022-09-12T07:01:47;16.90;99.90
19544;DHT22;9917;51.256;7.152;2022-09-12T07:06:40;18.20;99.90
19544;DHT22;9917;51.256;7.152;2022-09-12T07:09:09;17.00;99.90
19544;DHT22;9917;51.256;7.152;2022-09-12T07:11:37;18.30;99.90
19544;DHT22;9917;51.256;7.152;2022-09-12T07:14:05;18.00;99.90
19544;DHT22;9917;51.256;7.152;2022-09-12T07:16:34;18.10;99.90
19544;DHT22;9917;51.256;7.152;2022-09-12T07:19:01;18.70;99.90
19544;DHT22;9917;51.256;7.152;2022-09-12T07:21:28;17.30;99.90
19544;DHT22;9917;51.256;7.152;2022-09-12T07:23:54;18.60;99.90
19544;DHT22;9917;51.256;7.152;2022-09-12T07:26:20;19.40;99.90
19544;DHT22;9917;51.256;7.152;2022-09-12T07:28:49;19.00;99.90
19544;DHT22;9917;51.256;7.152;2022-09-12T07:31:20;19.70;99.90
19544;DHT22;9917;51.256;7.152;2022-09-12T07:33:48;20.20;99.90
19544;DHT22;9917;51.256;7.152;2022-09-12T07:36:15;19.60;99.90
19544;DHT22;9917;51.256;7.152;2022-09-12T07:38:42;19.50;99.90
19544;DHT22;9917;51.256;7.152;2022-09-12T07:41:12;20.00;99.90
19544;DHT22;9917;51.256;7.152;2022-09-12T07:46:04;19.50;99.90
19544;DHT22;9917;51.256;7.152;2022-09-12T07:48:30;19.40;99.90
19544;DHT22;9917;51.256;7.152;2022-09-12T07:50:59;20.30;99.90
19544;DHT22;9917;51.256;7.152;2022-09-12T07:53:25;19.80;99.90
19544;DHT22;9917;51.256;7.152;2022-09-12T07:55:52;20.30;99.90
19544;DHT22;9917;51.256;7.152;2022-09-12T07:58:18;20.60;99.90
19544;DHT22;9917;51.256;7.152;2022-09-12T08:05:36;20.90;99.90
19544;DHT22;9917;51.256;7.152;2022-09-12T08:08:03;20.80;99.90
19544;DHT22;9917;51.256;7.152;2022-09-12T08:10:29;21.60;99.90
19544;DHT22;9917;51.256;7.152;2022-09-12T08:17:47;20.90;99.90
19544;DHT22;9917;51.256;7.152;2022-09-12T08:22:39;22.40;99.90
19544;DHT22;9917;51.256;7.152;2022-09-12T08:25:07;21.40;99.90
19544;DHT22;9917;51.256;7.152;2022-09-12T08:32:25;23.30;99.90
19544;DHT22;9917;51.256;7.152;2022-09-12T08:34:50;24.50;99.90
19544;DHT22;9917;51.256;7.152;2022-09-12T08:42:16;25.80;99.90
19544;DHT22;9917;51.256;7.152;2022-09-12T08:45:05;25.20;99.90
19544;DHT22;9917;51.256;7.152;2022-09-12T08:47:35;23.10;99.90
19544;DHT22;9917;51.256;7.152;2022-09-12T08:50:09;23.90;99.90
19544;DHT22;9917;51.256;7.152;2022-09-12T08:52:41;23.50;99.90
19544;DHT22;9917;51.256;7.152;2022-09-12T08:55:26;23.20;99.90
19544;DHT22;9917;51.256;7.152;2022-09-12T08:57:55;23.70;99.90
19544;DHT22;9917;51.256;7.152;2022-09-12T09:03:14;25.30;99.90
19544;DHT22;9917;51.256;7.152;2022-09-12T09:05:48;26.70;99.90
19544;DHT22;9917;51.256;7.152;2022-09-12T09:08:42;27.10;99.90
19544;DHT22;9917;51.256;7.152;2022-09-12T09:11:20;28.10;96.00
19544;DHT22;9917;51.256;7.152;2022-09-12T09:14:00;28.90;93.70
19544;DHT22;9917;51.256;7.152;2022-09-12T09:16:31;28.20;93.10
19544;DHT22;9917;51.256;7.152;2022-09-12T09:19:00;27.60;93.30
19544;DHT22;9917;51.256;7.152;2022-09-12T09:21:30;27.60;96.50
19544;DHT22;9917;51.256;7.152;2022-09-12T09:24:01;26.90;93.60
19544;DHT22;9917;51.256;7.152;2022-09-12T09:26:36;26.70;93.80
19544;DHT22;9917;51.256;7.152;2022-09-12T09:29:10;27.40;93.20
19544;DHT22;9917;51.256;7.152;2022-09-12T09:34:12;28.20;92.00
19544;DHT22;9917;51.256;7.152;2022-09-12T09:36:43;29.10;90.00
19544;DHT22;9917;51.256;7.152;2022-09-12T09:42:08;29.60;86.20
19544;DHT22;9917;51.256;7.152;2022-09-12T09:44:37;32.00;79.50
19544;DHT22;9917;51.256;7.152;2022-09-12T09:47:03;35.50;71.80
19544;DHT22;9917;51.256;7.152;2022-09-12T09:49:31;36.50;59.60
19544;DHT22;9917;51.256;7.152;2022-09-12T09:51:58;37.50;52.80
19544;DHT22;9917;51.256;7.152;2022-09-12T09:54:27;37.30;52.30
19544;DHT22;9917;51.256;7.152;2022-09-12T09:59:26;38.90;49.40
19544;DHT22;9917;51.256;7.152;2022-09-12T10:01:55;39.50;45.10
19544;DHT22;9917;51.256;7.152;2022-09-12T10:04:23;37.70;46.30
19544;DHT22;9917;51.256;7.152;2022-09-12T10:06:53;38.50;50.40
19544;DHT22;9917;51.256;7.152;2022-09-12T10:09:23;38.00;46.80
19544;DHT22;9917;51.256;7.152;2022-09-12T10:11:50;37.80;45.90
19544;DHT22;9917;51.256;7.152;2022-09-12T10:14:34;38.30;48.40
19544;DHT22;9917;51.256;7.152;2022-09-12T10:19:44;40.30;45.00
19544;DHT22;9917;51.256;7.152;2022-09-12T10:22:15;41.50;42.10
19544;DHT22;9917;51.256;7.152;2022-09-12T10:24:46;41.70;39.60
19544;DHT22;9917;51.256;7.152;2022-09-12T10:27:15;40.20;40.70
19544;DHT22;9917;51.256;7.152;2022-09-12T10:29:44;41.00;39.40
19544;DHT22;9917;51.256;7.152;2022-09-12T10:32:20;41.80;40.30
19544;DHT22;9917;51.256;7.152;2022-09-12T10:37:18;41.30;38.10
19544;DHT22;9917;51.256;7.152;2022-09-12T10:39:50;40.40;39.20
19544;DHT22;9917;51.256;7.152;2022-09-12T10:42:17;41.20;39.80
19544;DHT22;9917;51.256;7.152;2022-09-12T10:45:03;42.30;38.70
19544;DHT22;9917;51.256;7.152;2022-09-12T10:47:30;43.30;36.40
19544;DHT22;9917;51.256;7.152;2022-09-12T10:50:19;44.60;36.90
19544;DHT22;9917;51.256;7.152;2022-09-12T10:55:13;42.30;36.10
19544;DHT22;9917;51.256;7.152;2022-09-12T11:00:38;40.10;37.50
19544;DHT22;9917;51.256;7.152;2022-09-12T11:03:15;41.00;36.70
19544;DHT22;9917;51.256;7.152;2022-09-12T11:05:55;38.80;41.40
19544;DHT22;9917;51.256;7.152;2022-09-12T11:08:43;38.20;38.80
19544;DHT22;9917;51.256;7.152;2022-09-12T11:11:26;37.40;40.10
19544;DHT22;9917;51.256;7.152;2022-09-12T11:14:06;37.40;40.50
19544;DHT22;9917;51.256;7.152;2022-09-12T11:16:42;37.20;40.00
19544;DHT22;9917;51.256;7.152;2022-09-12T11:19:30;38.60;40.40
19544;DHT22;9917;51.256;7.152;2022-09-12T11:22:12;40.10;37.90
19544;DHT22;9917;51.256;7.152;2022-09-12T11:24:54;41.30;36.60
19544;DHT22;9917;51.256;7.152;2022-09-12T11:27:43;42.60;37.70
19544;DHT22;9917;51.256;7.152;2022-09-12T11:30:13;40.80;35.10
19544;DHT22;9917;51.256;7.152;2022-09-12T11:32:56;39.20;36.80
19544;DHT22;9917;51.256;7.152;2022-09-12T11:35:27;38.10;38.50
19544;DHT22;9917;51.256;7.152;2022-09-12T11:41:01;37.20;39.00
19544;DHT22;9917;51.256;7.152;2022-09-12T11:43:36;37.80;38.00
19544;DHT22;9917;51.256;7.152;2022-09-12T11:46:08;39.60;37.00
19544;DHT22;9917;51.256;7.152;2022-09-12T11:48:40;41.00;34.90
19544;DHT22;9917;51.256;7.152;2022-09-12T11:51:16;40.10;36.00
19544;DHT22;9917;51.256;7.152;2022-09-12T11:53:43;40.80;34.80
19544;DHT22;9917;51.256;7.152;2022-09-12T11:56:16;39.70;35.30
19544;DHT22;9917;51.256;7.152;2022-09-12T11:58:45;37.50;36.60
19544;DHT22;9917;51.256;7.152;2022-09-12T12:01:16;37.00;37.90
19544;DHT22;9917;51.256;7.152;2022-09-12T12:03:45;38.00;37.30
19544;DHT22;9917;51.256;7.152;2022-09-12T12:06:16;38.70;36.30
19544;DHT22;9917;51.256;7.152;2022-09-12T12:08:43;39.60;35.60
19544;DHT22;9917;51.256;7.152;2022-09-12T12:11:11;38.90;36.10
19544;DHT22;9917;51.256;7.152;2022-09-12T12:13:44;36.30;37.70
19544;DHT22;9917;51.256;7.152;2022-09-12T12:16:14;36.10;38.90
19544;DHT22;9917;51.256;7.152;2022-09-12T12:21:38;36.90;38.70
19544;DHT22;9917;51.256;7.152;2022-09-12T12:24:13;37.50;38.70
19544;DHT22;9917;51.256;7.152;2022-09-12T12:26:43;38.50;38.70
19544;DHT22;9917;51.256;7.152;2022-09-12T12:29:10;38.50;35.60
19544;DHT22;9917;51.256;7.152;2022-09-12T12:32:22;36.40;39.20
19544;DHT22;9917;51.256;7.152;2022-09-12T12:37:50;38.30;38.80
19544;DHT22;9917;51.256;7.152;2022-09-12T12:40:26;37.20;37.10
19544;DHT22;9917;51.256;7.152;2022-09-12T12:51:48;39.50;35.90
19544;DHT22;9917;51.256;7.152;2022-09-12T12:54:32;39.60;35.50
19544;DHT22;9917;51.256;7.152;2022-09-12T12:57:16;40.40;35.90
19544;DHT22;9917;51.256;7.152;2022-09-12T12:59:46;40.60;34.00
19544;DHT22;9917;51.256;7.152;2022-09-12T13:02:22;38.50;37.70
19544;DHT22;9917;51.256;7.152;2022-09-12T13:07:25;38.50;35.20
19544;DHT22;9917;51.256;7.152;2022-09-12T13:09:53;38.40;36.60
19544;DHT22;9917;51.256;7.152;2022-09-12T13:12:21;39.10;35.30
19544;DHT22;9917;51.256;7.152;2022-09-12T13:14:58;38.30;35.30
19544;DHT22;9917;51.256;7.152;2022-09-12T13:17:31;38.30;36.30
19544;DHT22;9917;51.256;7.152;2022-09-12T13:20:17;38.00;35.20
19544;DHT22;9917;51.256;7.152;2022-09-12T13:22:45;36.40;37.00
19544;DHT22;9917;51.256;7.152;2022-09-12T13:25:22;35.30;38.60
19544;DHT22;9917;51.256;7.152;2022-09-12T13:28:05;34.80;42.70
19544;DHT22;9917;51.256;7.152;2022-09-12T13:30:33;34.60;39.10
19544;DHT22;9917;51.256;7.152;2022-09-12T13:33:11;34.10;39.40
19544;DHT22;9917;51.256;7.152;2022-09-12T13:35:53;33.50;40.80
19544;DHT22;9917;51.256;7.152;2022-09-12T13:38:29;33.40;41.40
19544;DHT22;9917;51.256;7.152;2022-09-12T13:41:19;35.50;41.30
19544;DHT22;9917;51.256;7.152;2022-09-12T13:46:16;35.50;43.30
19544;DHT22;9917;51.256;7.152;2022-09-12T13:51:20;33.00;40.90
19544;DHT22;9917;51.256;7.152;2022-09-12T13:56:17;33.00;41.80
19544;DHT22;9917;51.256;7.152;2022-09-12T13:58:51;33.60;41.20
19544;DHT22;9917;51.256;7.152;2022-09-12T14:06:14;35.00;39.80
19544;DHT22;9917;51.256;7.152;2022-09-12T14:11:07;34.50;40.20
19544;DHT22;9917;51.256;7.152;2022-09-12T14:13:35;34.60;39.60
19544;DHT22;9917;51.256;7.152;2022-09-12T14:16:01;33.80;59.10
19544;DHT22;9917;51.256;7.152;2022-09-12T14:18:29;33.60;39.20
19544;DHT22;9917;51.256;7.152;2022-09-12T14:20:57;33.50;39.10
19544;DHT22;9917;51.256;7.152;2022-09-12T14:23:26;33.60;40.50
19544;DHT22;9917;51.256;7.152;2022-09-12T14:25:53;34.30;38.10
19544;DHT22;9917;51.256;7.152;2022-09-12T14:30:59;35.00;37.80
19544;DHT22;9917;51.256;7.152;2022-09-12T14:35:55;33.50;39.30
19544;DHT22;9917;51.256;7.152;2022-09-12T14:38:34;33.60;39.70
19544;DHT22;9917;51.256;7.152;2022-09-12T14:41:04;33.00;38.30
19544;DHT22;9917;51.256;7.152;2022-09-12T14:43:33;32.10;41.30
19544;DHT22;9917;51.256;7.152;2022-09-12T14:46:02;31.50;40.90
19544;DHT22;9917;51.256;7.152;2022-09-12T14:48:31;32.10;39.70
19544;DHT22;9917;51.256;7.152;2022-09-12T14:53:31;31.40;40.30
19544;DHT22;9917;51.256;7.152;2022-09-12T14:56:03;31.40;41.10
19544;DHT22;9917;51.256;7.152;2022-09-12T15:00:58;31.30;41.20
19544;DHT22;9917;51.256;7.152;2022-09-12T15:03:28;31.50;41.10
19544;DHT22;9917;51.256;7.152;2022-09-12T15:13:18;29.90;44.20
19544;DHT22;9917;51.256;7.152;2022-09-12T15:15:46;28.90;46.10
19544;DHT22;9917;51.256;7.152;2022-09-12T15:20:41;28.80;45.20
19544;DHT22;9917;51.256;7.152;2022-09-12T15:23:16;28.90;45.40
19544;DHT22;9917;51.256;7.152;2022-09-12T15:28:15;30.00;44.20
19544;DHT22;9917;51.256;7.152;2022-09-12T15:33:08;29.60;48.90
19544;DHT22;9917;51.256;7.152;2022-09-12T15:38:02;29.90;44.00
19544;DHT22;9917;51.256;7.152;2022-09-12T15:45:22;27.80;47.10
19544;DHT22;9917;51.256;7.152;2022-09-12T15:47:49;28.10;51.00
19544;DHT22;9917;51.256;7.152;2022-09-12T15:50:15;27.30;48.20
19544;DHT22;9917;51.256;7.152;2022-09-12T15:52:41;27.00;48.50
19544;DHT22;9917;51.256;7.152;2022-09-12T15:55:14;27.00;49.10
19544;DHT22;9917;51.256;7.152;2022-09-12T16:00:07;26.80;49.80
19544;DHT22;9917;51.256;7.152;2022-09-12T16:02:35;26.40;53.30
19544;DHT22;9917;51.256;7.152;2022-09-12T16:07:27;25.10;54.60
19544;DHT22;9917;51.256;7.152;2022-09-12T16:12:20;25.70;53.00
19544;DHT22;9917;51.256;7.152;2022-09-12T16:17:12;26.00;58.00
19544;DHT22;9917;51.256;7.152;2022-09-12T16:19:38;26.10;58.10
19544;DHT22;9917;51.256;7.152;2022-09-12T16:29:23;26.40;56.70
19544;DHT22;9917;51.256;7.152;2022-09-12T16:31:49;26.50;57.50
19544;DHT22;9917;51.256;7.152;2022-09-12T16:36:41;26.50;55.90
19544;DHT22;9917;51.256;7.152;2022-09-12T16:39:07;25.80;58.60
19544;DHT22;9917;51.256;7.152;2022-09-12T16:46:26;25.10;59.50
19544;DHT22;9917;51.256;7.152;2022-09-12T16:48:54;25.40;55.70
19544;DHT22;9917;51.256;7.152;2022-09-12T16:51:21;25.30;56.30
19544;DHT22;9917;51.256;7.152;2022-09-12T16:53:48;25.30;56.60
19544;DHT22;9917;51.256;7.152;2022-09-12T16:58:40;25.20;56.00
19544;DHT22;9917;51.256;7.152;2022-09-12T17:01:07;25.20;56.30
19544;DHT22;9917;51.256;7.152;2022-09-12T17:03:35;25.10;58.50
19544;DHT22;9917;51.256;7.152;2022-09-12T17:06:02;25.10;58.30
19544;DHT22;9917;51.256;7.152;2022-09-12T17:12:36;25.10;59.60
19544;DHT22;9917;51.256;7.152;2022-09-12T17:29:40;25.00;67.20
19544;DHT22;9917;51.256;7.152;2022-09-12T17:32:05;24.60;67.60
19544;DHT22;9917;51.256;7.152;2022-09-12T17:41:49;23.50;67.40
19544;DHT22;9917;51.256;7.152;2022-09-12T17:46:42;24.00;69.40
19544;DHT22;9917;51.256;7.152;2022-09-12T17:49:11;23.20;70.30
19544;DHT22;9917;51.256;7.152;2022-09-12T17:51:38;23.00;71.50
19544;DHT22;9917;51.256;7.152;2022-09-12T17:54:05;23.00;73.00
19544;DHT22;9917;51.256;7.152;2022-09-12T17:56:33;22.80;73.70
19544;DHT22;9917;51.256;7.152;2022-09-12T17:58:59;22.50;74.90
19544;DHT22;9917;51.256;7.152;2022-09-12T18:01:26;22.40;76.50
19544;DHT22;9917;51.256;7.152;2022-09-12T18:03:54;22.20;77.60
19544;DHT22;9917;51.256;7.152;2022-09-12T18:16:06;21.70;83.50
19544;DHT22;9917;51.256;7.152;2022-09-12T18:18:33;21.60;84.80
19544;DHT22;9917;51.256;7.152;2022-09-12T18:21:00;21.50;86.10
19544;DHT22;9917;51.256;7.152;2022-09-12T18:25:56;21.30;88.50
19544;DHT22;9917;51.256;7.152;2022-09-12T18:30:50;21.10;90.90
19544;DHT22;9917;51.256;7.152;2022-09-12T18:38:09;21.10;92.50
19544;DHT22;9917;51.256;7.152;2022-09-12T18:55:12;20.70;96.70
19544;DHT22;9917;51.256;7.152;2022-09-12T19:00:05;20.70;97.20
19544;DHT22;9917;51.256;7.152;2022-09-12T19:02:31;20.80;99.90
19544;DHT22;9917;51.256;7.152;2022-09-12T19:07:24;20.40;99.90
19544;DHT22;9917;51.256;7.152;2022-09-12T19:12:17;20.20;98.60
19544;DHT22;9917;51.256;7.152;2022-09-12T19:14:42;21.00;99.90
19544;DHT22;9917;51.256;7.152;2022-09-12T19:17:08;19.50;99.90
19544;DHT22;9917;51.256;7.152;2022-09-12T19:24:26;21.10;99.90
19544;DHT22;9917;51.256;7.152;2022-09-12T19:26:52;20.90;99.90
19544;DHT22;9917;51.256;7.152;2022-09-12T19:29:19;20.50;98.90
19544;DHT22;9917;51.256;7.152;2022-09-12T19:34:11;20.50;96.90
19544;DHT22;9917;51.256;7.152;2022-09-12T19:39:04;20.60;96.10
19544;DHT22;9917;51.256;7.152;2022-09-12T19:46:24;21.30;98.00
19544;DHT22;9917;51.256;7.152;2022-09-12T19:51:16;20.30;99.90
19544;DHT22;9917;51.256;7.152;2022-09-12T19:56:11;20.60;99.90
19544;DHT22;9917;51.256;7.152;2022-09-12T19:58:38;21.30;99.90
19544;DHT22;9917;51.256;7.152;2022-09-12T20:01:08;20.50;97.20
19544;DHT22;9917;51.256;7.152;2022-09-12T20:03:36;20.80;94.60
19544;DHT22;9917;51.256;7.152;2022-09-12T20:06:02;21.10;99.90
19544;DHT22;9917;51.256;7.152;2022-09-12T20:08:27;21.40;99.90
19544;DHT22;9917;51.256;7.152;2022-09-12T20:10:54;20.30;96.00
19544;DHT22;9917;51.256;7.152;2022-09-12T20:20:39;20.80;94.60
19544;DHT22;9917;51.256;7.152;2022-09-12T20:37:43;20.70;94.60
19544;DHT22;9917;51.256;7.152;2022-09-12T20:40:09;20.80;94.70
19544;DHT22;9917;51.256;7.152;2022-09-12T20:49:53;21.30;96.40
19544;DHT22;9917;51.256;7.152;2022-09-12T20:54:46;20.80;94.70
19544;DHT22;9917;51.256;7.152;2022-09-12T20:57:12;21.00;99.90
19544;DHT22;9917;51.256;7.152;2022-09-12T20:59:38;21.20;95.40
19544;DHT22;9917;51.256;7.152;2022-09-12T21:02:04;19.90;94.70
19544;DHT22;9917;51.256;7.152;2022-09-12T21:11:49;20.70;95.00
19544;DHT22;9917;51.256;7.152;2022-09-12T21:23:59;20.30;99.90
19544;DHT22;9917;51.256;7.152;2022-09-12T21:28:53;20.40;95.70
19544;DHT22;9917;51.256;7.152;2022-09-12T21:33:45;20.40;99.90
19544;DHT22;9917;51.256;7.152;2022-09-12T21:38:37;18.90;99.90
19544;DHT22;9917;51.256;7.152;2022-09-12T21:41:04;20.20;96.30
19544;DHT22;9917;51.256;7.152;2022-09-12T21:43:30;20.10;96.50
19544;DHT22;9917;51.256;7.152;2022-09-12T21:45:58;20.70;96.90
19544;DHT22;9917;51.256;7.152;2022-09-12T21:48:24;20.20;96.70
19544;DHT22;9917;51.256;7.152;2022-09-12T21:50:50;19.70;99.60
19544;DHT22;9917;51.256;7.152;2022-09-12T21:53:16;19.40;99.90
19544;DHT22;9917;51.256;7.152;2022-09-12T21:55:42;20.30;99.90
19544;DHT22;9917;51.256;7.152;2022-09-12T22:00:34;20.10;98.10
19544;DHT22;9917;51.256;7.152;2022-09-12T22:03:01;20.00;97.30
19544;DHT22;9917;51.256;7.152;2022-09-12T22:15:11;19.20;99.90
19544;DHT22;9917;51.256;7.152;2022-09-12T22:17:36;20.10;99.90
19544;DHT22;9917;51.256;7.152;2022-09-12T22:20:04;19.70;98.00
19544;DHT22;9917;51.256;7.152;2022-09-12T22:22:30;19.10;98.10
19544;DHT22;9917;51.256;7.152;2022-09-12T22:32:14;19.80;99.90
19544;DHT22;9917;51.256;7.152;2022-09-12T22:37:07;19.70;98.60
19544;DHT22;9917;51.256;7.152;2022-09-12T22:39:33;20.20;99.90
19544;DHT22;9917;51.256;7.152;2022-09-12T22:44:24;19.50;99.90
19544;DHT22;9917;51.256;7.152;2022-09-12T22:51:42;20.00;99.10